Sibley, Illinois
Current Conditions -  °F | °C
As of 2:30 PM on Saturday 20 Dec 2014 (Local Time) from KTIP Reporting Station
Overcast Overcast  
Wind Chill: 29°   Ceiling: 6000
Heat Index: 35°   Visibility: 10mi
Dew Point: 28°   Wind: 7mph
Humidity: 77%   Direction: 170°S
Pressure: 30.25"   Gusts: NA
Location:  40.59°N, 88.38°W
Report Text: KTIP 202030Z AUTO 17006KT 10SM OVC060 02/M02 A3025 RMK AO2 T00161021
Loading
Personal Weather Stations






























Interactive Weather Map New forecast layout! Learn more

10-Day Weather Forecast

Advertisements
Track Severe Weather on mobile